Las Vegas, Nevada
Traffic Map
Current Weather Conditions
Las Vegas, Nevada
Scattered Clouds
Scattered Clouds
63°
Feels Like: 63°
Wind Chill: 63° Ceiling: Unl
Heat Index: 63° Visibility: 10mi
Dew Point: 37° Wind: 7mph
Humidity: 38% Direction: 30° (NNE)
Pressure: 29.9in Gusts: 0mph
Raw Report DataKLAS 312356Z 03006KT 10SM SCT070 SCT120 17/03 A2990 RMK AO2 SLP117 T01720028 10183 20139 52003
Traffic Incident Summary
Active as of:
Severity:
Category:
InformationThere was an issue retrieving the traffic information for this location. Please try a different location or try again shortly.
Advertisements
Track Severe Weather on mobile